Terminal Aerodrome Forecast
Issued by NWS

Home | Current Version | Previous Version | Text Only | Print | Product List | Glossary On
Versions: 1 2 3 4 5 6 7 8 9 10 11 12 13
000
FTUS42 KILM 242327
TAFCRE
TAF
KCRE 242327Z 2500/2524 21014G21KT P6SM VCSH OVC040
      TEMPO 2500/2503 4SM TSRA OVC025CB
     FM250300 23010G18KT P6SM VCTS BKN050CB
     FM250900 24009G16KT 3SM BR BKN010
     FM251230 26006KT P6SM BKN050 PROB30 2513/2518 4SM TSRA OVC015CB
     FM251800 22007KT P6SM BKN025=

USA.gov is the U.S. government's official web portal to all federal, state and local government web resources and services.